createdAt,value
2023-04-18T00:00:07.744Z,186.93
2023-04-18T00:01:07.766Z,186.95
2023-04-18T00:02:07.934Z,185.17
2023-04-18T00:03:07.956Z,184.48
2023-04-18T00:04:08.088Z,185.80
2023-04-18T00:05:08.020Z,182.64
2023-04-18T00:06:07.962Z,186.27
2023-04-18T00:07:08.021Z,181.15
2023-04-18T00:08:08.076Z,187.21
2023-04-18T00:09:08.127Z,187.00
2023-04-18T00:10:08.135Z,187.74
2023-04-18T00:11:08.172Z,182.63
2023-04-18T00:12:08.201Z,185.58
2023-04-18T00:13:08.258Z,187.48
2023-04-18T00:14:08.270Z,183.91
2023-04-18T00:15:08.336Z,183.90
2023-04-18T00:16:08.400Z,185.48
2023-04-18T00:17:08.451Z,183.44
2023-04-18T00:18:08.522Z,181.07
2023-04-18T00:19:08.507Z,188.21
2023-04-18T00:20:08.534Z,186.55
2023-04-18T00:21:08.701Z,180.67
2023-04-18T00:22:08.601Z,184.04
2023-04-18T00:23:08.641Z,182.95
2023-04-18T00:24:08.710Z,183.72
2023-04-18T00:25:08.713Z,181.40
2023-04-18T00:26:08.760Z,184.60
2023-04-18T00:27:08.774Z,182.81
2023-04-18T00:28:08.806Z,183.03
2023-04-18T00:29:08.912Z,183.13
2023-04-18T00:30:08.994Z,183.59
2023-04-18T00:31:09.050Z,182.43
2023-04-18T00:32:09.112Z,183.99
2023-04-18T00:33:09.010Z,180.03
2023-04-18T00:34:09.079Z,180.48
2023-04-18T00:35:09.123Z,177.11
2023-04-18T00:36:09.137Z,182.28
2023-04-18T00:37:09.212Z,178.39
2023-04-18T00:38:09.261Z,180.91
2023-04-18T00:39:09.315Z,178.49
2023-04-18T00:40:09.313Z,182.97
2023-04-18T00:41:09.393Z,180.54
2023-04-18T00:42:09.450Z,181.30
2023-04-18T00:43:09.491Z,180.54
2023-04-18T00:44:09.505Z,181.77
2023-04-18T00:45:09.564Z,181.54
2023-04-18T00:46:09.635Z,181.83
2023-04-18T00:47:09.633Z,182.80
2023-04-18T00:48:09.648Z,180.98
2023-04-18T00:49:09.749Z,182.37
2023-04-18T00:50:09.759Z,185.69
2023-04-18T00:51:09.834Z,180.98
2023-04-18T00:52:09.861Z,180.21
2023-04-18T00:53:09.934Z,183.18
2023-04-18T00:54:09.935Z,182.75
2023-04-18T00:55:09.983Z,182.92
2023-04-18T00:56:10.059Z,182.29
2023-04-18T00:57:10.056Z,177.13
2023-04-18T00:58:10.122Z,182.98
2023-04-18T00:59:10.177Z,179.42
2023-04-18T01:00:10.216Z,182.37
2023-04-18T01:01:10.272Z,180.12
2023-04-18T01:02:10.323Z,182.31
2023-04-18T01:03:10.507Z,178.23
2023-04-18T01:04:10.482Z,173.79
2023-04-18T01:05:10.424Z,180.79
2023-04-18T01:06:10.466Z,181.59
2023-04-18T01:07:10.530Z,180.53
2023-04-18T01:08:10.549Z,183.51
2023-04-18T01:09:10.594Z,180.77
2023-04-18T01:10:10.704Z,180.39
2023-04-18T01:11:10.672Z,181.42
2023-04-18T01:12:10.717Z,181.33
2023-04-18T01:13:10.790Z,179.27
2023-04-18T01:14:11.052Z,180.63
2023-04-18T01:15:10.848Z,182.58
2023-04-18T01:16:10.979Z,181.53
2023-04-18T01:17:10.983Z,181.29
2023-04-18T01:18:11.018Z,185.37
2023-04-18T01:19:11.031Z,181.63
2023-04-18T01:20:11.092Z,181.58
2023-04-18T01:21:11.084Z,177.78
2023-04-18T01:22:11.198Z,177.57
2023-04-18T01:23:11.194Z,182.70
2023-04-18T01:24:11.568Z,176.90
2023-04-18T01:25:11.329Z,182.10
2023-04-18T01:26:11.389Z,183.67
2023-04-18T01:27:11.396Z,178.32
2023-04-18T01:28:11.447Z,180.42
2023-04-18T01:29:11.519Z,181.80
2023-04-18T01:30:11.519Z,181.88
2023-04-18T01:31:11.670Z,181.41
2023-04-18T01:32:11.622Z,182.32
2023-04-18T01:33:11.681Z,179.54
2023-04-18T01:34:11.879Z,178.71
2023-04-18T01:35:11.806Z,176.70
2023-04-18T01:36:11.855Z,179.15
2023-04-18T01:37:11.869Z,175.83
2023-04-18T01:38:11.919Z,178.88
2023-04-18T01:39:11.986Z,177.63
2023-04-18T01:40:12.055Z,177.39
2023-04-18T01:41:12.053Z,178.18
2023-04-18T01:42:12.114Z,180.46
2023-04-18T01:43:12.150Z,179.43
2023-04-18T01:44:12.489Z,180.20
2023-04-18T01:45:12.236Z,174.73
2023-04-18T01:46:12.355Z,177.63
2023-04-18T01:47:12.344Z,175.29
2023-04-18T01:48:12.405Z,181.51
2023-04-18T01:49:12.408Z,180.38
2023-04-18T01:50:12.492Z,182.50
2023-04-18T01:51:12.520Z,179.16
2023-04-18T01:52:12.587Z,174.24
2023-04-18T01:53:12.601Z,180.75
2023-04-18T01:54:12.884Z,180.04
2023-04-18T01:55:12.710Z,177.83
2023-04-18T01:56:12.758Z,181.64
2023-04-18T01:57:12.831Z,177.28
2023-04-18T01:58:12.827Z,182.11
2023-04-18T01:59:12.858Z,181.94
2023-04-18T02:00:12.908Z,179.78
2023-04-18T02:01:13.060Z,180.46
2023-04-18T02:02:13.064Z,178.98
2023-04-18T02:03:13.244Z,174.89
2023-04-18T02:04:13.454Z,173.23
2023-04-18T02:05:13.194Z,174.41
2023-04-18T02:06:13.185Z,175.62
2023-04-18T02:07:13.244Z,174.43
2023-04-18T02:08:13.300Z,177.08
2023-04-18T02:09:13.361Z,177.65
2023-04-18T02:10:13.427Z,176.37
2023-04-18T02:11:13.480Z,176.95
2023-04-18T02:12:13.551Z,177.21
2023-04-18T02:13:13.556Z,172.50
2023-04-18T02:14:13.870Z,176.46
2023-04-18T02:15:13.671Z,171.51
2023-04-18T02:16:13.748Z,176.39
2023-04-18T02:17:13.772Z,175.28
2023-04-18T02:18:13.773Z,174.34
2023-04-18T02:19:13.927Z,178.02
2023-04-18T02:20:13.894Z,170.81
2023-04-18T02:21:13.953Z,176.41
2023-04-18T02:22:14.027Z,176.28
2023-04-18T02:23:14.041Z,173.02
2023-04-18T02:24:14.388Z,174.89
2023-04-18T02:25:14.144Z,175.53
2023-04-18T02:26:14.193Z,174.17
2023-04-18T02:27:14.255Z,176.12
2023-04-18T02:28:14.255Z,174.13
2023-04-18T02:29:14.316Z,174.73
2023-04-18T02:30:14.387Z,172.33
2023-04-18T02:31:14.476Z,174.19
2023-04-18T02:32:14.432Z,175.60
2023-04-18T02:33:14.517Z,173.25
2023-04-18T02:34:14.756Z,175.32
2023-04-18T02:35:14.647Z,173.15
2023-04-18T02:36:14.624Z,173.57
2023-04-18T02:37:14.678Z,173.20
2023-04-18T02:38:14.750Z,170.72
2023-04-18T02:39:14.803Z,172.37
2023-04-18T02:40:14.852Z,170.33
2023-04-18T02:41:14.930Z,172.90
2023-04-18T02:42:14.969Z,173.57
2023-04-18T02:43:14.986Z,172.96
2023-04-18T02:44:15.227Z,168.98
2023-04-18T02:45:15.042Z,174.99
2023-04-18T02:46:15.157Z,170.09
2023-04-18T02:47:15.160Z,173.28
2023-04-18T02:48:15.280Z,169.31
2023-04-18T02:49:15.275Z,172.94
2023-04-18T02:50:15.314Z,168.26
2023-04-18T02:51:15.346Z,169.47
2023-04-18T02:52:15.433Z,170.52
2023-04-18T02:53:15.472Z,171.59
2023-04-18T02:54:15.730Z,171.50
2023-04-18T02:55:15.586Z,173.54
2023-04-18T02:56:15.631Z,170.50
2023-04-18T02:57:15.686Z,169.72
2023-04-18T02:58:15.735Z,170.97
2023-04-18T02:59:15.752Z,172.14
2023-04-18T03:00:15.827Z,170.15
2023-04-18T03:01:15.916Z,172.38
2023-04-18T03:02:15.944Z,170.09
2023-04-18T03:03:16.030Z,166.36
2023-04-18T03:04:16.306Z,171.19
2023-04-18T03:05:16.065Z,164.05
2023-04-18T03:06:16.101Z,166.18
2023-04-18T03:07:16.165Z,167.96
2023-04-18T03:08:16.200Z,168.44
2023-04-18T03:09:16.229Z,164.75
2023-04-18T03:10:16.297Z,166.32
2023-04-18T03:11:16.379Z,166.93
2023-04-18T03:12:16.418Z,169.99
2023-04-18T03:13:16.438Z,168.09
2023-04-18T03:14:16.459Z,169.30
2023-04-18T03:15:16.538Z,168.45
2023-04-18T03:16:16.742Z,168.02
2023-04-18T03:17:16.649Z,168.43
2023-04-18T03:18:16.717Z,166.92
2023-04-18T03:19:16.806Z,167.53
2023-04-18T03:20:16.762Z,166.25
2023-04-18T03:21:16.817Z,165.07
2023-04-18T03:22:16.882Z,165.67
2023-04-18T03:23:16.881Z,163.74
2023-04-18T03:24:17.142Z,166.61
2023-04-18T03:25:17.000Z,165.49
2023-04-18T03:26:17.113Z,165.92
2023-04-18T03:27:17.135Z,164.92
2023-04-18T03:28:17.178Z,169.52
2023-04-18T03:29:17.209Z,165.02
2023-04-18T03:30:17.207Z,169.40
2023-04-18T03:31:17.371Z,169.42
2023-04-18T03:32:17.437Z,168.79
2023-04-18T03:33:17.376Z,167.73
2023-04-18T03:34:17.472Z,168.72
2023-04-18T03:35:17.469Z,166.14
2023-04-18T03:36:17.540Z,168.76
2023-04-18T03:37:17.570Z,168.61
2023-04-18T03:38:17.648Z,166.80
2023-04-18T03:39:17.680Z,164.59
2023-04-18T03:40:17.717Z,165.71
2023-04-18T03:41:17.748Z,167.85
2023-04-18T03:42:17.849Z,163.79
2023-04-18T03:43:17.896Z,165.39
2023-04-18T03:44:17.931Z,162.62
2023-04-18T03:45:17.968Z,164.20
2023-04-18T03:46:18.055Z,168.78
2023-04-18T03:47:18.085Z,167.25
2023-04-18T03:48:18.136Z,167.42
2023-04-18T03:49:18.157Z,168.62
2023-04-18T03:50:18.240Z,165.62
2023-04-18T03:51:18.295Z,166.51
2023-04-18T03:52:18.325Z,166.53
2023-04-18T03:53:18.369Z,166.06
2023-04-18T03:54:18.456Z,165.28
2023-04-18T03:55:18.484Z,163.84
2023-04-18T03:56:18.505Z,166.82
2023-04-18T03:57:18.563Z,165.56
2023-04-18T03:58:18.630Z,167.24
2023-04-18T03:59:18.672Z,163.43
2023-04-18T04:00:18.673Z,166.09
2023-04-18T04:01:18.809Z,165.61
2023-04-18T04:02:18.990Z,167.88
2023-04-18T04:03:18.988Z,164.48
2023-04-18T04:04:19.142Z,162.28
2023-04-18T04:05:18.996Z,165.52
2023-04-18T04:06:19.023Z,160.95
2023-04-18T04:07:19.089Z,160.88
2023-04-18T04:08:19.161Z,144.84
2023-04-18T04:09:19.171Z,152.34
2023-04-18T04:10:19.202Z,154.66
2023-04-18T04:11:19.276Z,154.48
2023-04-18T04:12:19.289Z,145.93
2023-04-18T04:13:19.384Z,150.11
2023-04-18T04:14:19.437Z,139.06
2023-04-18T04:15:19.448Z,134.00
2023-04-18T04:16:19.567Z,135.88
2023-04-18T04:17:19.543Z,128.54
2023-04-18T04:18:19.583Z,137.09
2023-04-18T04:19:19.669Z,138.25
2023-04-18T04:20:19.732Z,135.45
2023-04-18T04:21:21.107Z,135.20
2023-04-18T04:22:19.825Z,137.86
2023-04-18T04:23:19.862Z,133.68
2023-04-18T04:24:19.920Z,124.25
2023-04-18T04:25:19.980Z,130.51
2023-04-18T04:26:20.025Z,131.92
2023-04-18T04:27:20.094Z,128.97
2023-04-18T04:28:20.065Z,128.71
2023-04-18T04:29:20.154Z,125.66
2023-04-18T04:30:20.219Z,120.50
2023-04-18T04:31:20.285Z,126.67
2023-04-18T04:32:20.434Z,131.22
2023-04-18T04:33:20.361Z,131.13
2023-04-18T04:34:20.380Z,130.50
2023-04-18T04:35:20.468Z,131.10
2023-04-18T04:36:20.496Z,126.13
2023-04-18T04:37:20.510Z,132.60
2023-04-18T04:38:20.591Z,128.87
2023-04-18T04:39:20.635Z,131.54
2023-04-18T04:40:20.711Z,133.23
2023-04-18T04:41:20.746Z,133.24
2023-04-18T04:42:20.814Z,134.22
2023-04-18T04:43:20.930Z,133.60
2023-04-18T04:44:20.931Z,135.54
2023-04-18T04:45:20.934Z,133.39
2023-04-18T04:46:21.080Z,131.52
2023-04-18T04:47:21.085Z,131.47
2023-04-18T04:48:21.095Z,131.33
2023-04-18T04:49:21.124Z,127.12
2023-04-18T04:50:21.182Z,129.28
2023-04-18T04:51:21.286Z,128.75
2023-04-18T04:52:21.306Z,130.09
2023-04-18T04:53:21.334Z,125.08
2023-04-18T04:54:21.409Z,123.13
2023-04-18T04:55:21.467Z,128.58
2023-04-18T04:56:21.511Z,125.70
2023-04-18T04:57:21.551Z,123.85
2023-04-18T04:58:21.619Z,124.11
2023-04-18T04:59:21.632Z,117.97
2023-04-18T05:00:21.720Z,125.54
2023-04-18T05:01:21.754Z,125.97
2023-04-18T05:02:21.812Z,124.05
2023-04-18T05:03:21.914Z,124.38
2023-04-18T05:04:21.933Z,124.31
2023-04-18T05:05:21.961Z,127.36
2023-04-18T05:06:21.987Z,127.10
2023-04-18T05:07:22.025Z,125.91
2023-04-18T05:08:22.071Z,123.79
2023-04-18T05:09:22.166Z,124.48
2023-04-18T05:10:22.167Z,130.17
2023-04-18T05:11:22.244Z,132.31
2023-04-18T05:12:22.256Z,130.60
2023-04-18T05:13:22.347Z,132.09
2023-04-18T05:14:22.332Z,133.79
2023-04-18T05:15:22.370Z,128.00
2023-04-18T05:16:22.482Z,134.31
2023-04-18T05:17:22.516Z,134.73
2023-04-18T05:18:22.556Z,136.93
2023-04-18T05:19:22.510Z,133.66
2023-04-18T05:20:22.636Z,131.98
2023-04-18T05:21:22.783Z,129.21
2023-04-18T05:22:22.678Z,132.21
2023-04-18T05:23:22.736Z,133.64
2023-04-18T05:24:22.805Z,138.51
2023-04-18T05:25:22.838Z,136.63
2023-04-18T05:26:22.842Z,139.75
2023-04-18T05:27:22.898Z,135.49
2023-04-18T05:28:22.969Z,137.54
2023-04-18T05:29:22.967Z,139.81
2023-04-18T05:30:23.062Z,136.92
2023-04-18T05:31:23.150Z,124.75
2023-04-18T05:32:23.175Z,130.71
2023-04-18T05:33:23.279Z,134.92
2023-04-18T05:34:23.254Z,126.41
2023-04-18T05:35:23.264Z,128.40
2023-04-18T05:36:23.328Z,126.99
2023-04-18T05:37:23.432Z,135.29
2023-04-18T05:38:23.457Z,132.96
2023-04-18T05:39:23.550Z,138.07
2023-04-18T05:40:23.670Z,145.68
2023-04-18T05:41:23.611Z,149.49
2023-04-18T05:42:23.673Z,162.13
2023-04-18T05:43:23.785Z,169.87
2023-04-18T05:44:23.977Z,171.86
2023-04-18T05:45:23.872Z,174.89
2023-04-18T05:46:23.972Z,171.24
2023-04-18T05:47:23.981Z,172.36
2023-04-18T05:48:24.022Z,172.18
2023-04-18T05:49:24.072Z,172.86
2023-04-18T05:50:24.166Z,174.74
2023-04-18T05:51:24.406Z,180.11
2023-04-18T05:52:24.278Z,181.94
2023-04-18T05:53:24.264Z,189.38
2023-04-18T05:54:24.331Z,184.24
2023-04-18T05:55:24.388Z,182.30
2023-04-18T05:56:24.564Z,176.79
2023-04-18T05:57:24.900Z,181.74
2023-04-18T05:58:24.508Z,179.94
2023-04-18T05:59:24.866Z,182.82
2023-04-18T06:00:24.572Z,180.56
2023-04-18T06:01:24.896Z,169.79
2023-04-18T06:02:24.843Z,190.63
2023-04-18T06:03:24.729Z,198.41
2023-04-18T06:04:24.762Z,184.06
2023-04-18T06:05:25.039Z,181.91
2023-04-18T06:06:24.730Z,184.82
2023-04-18T06:07:24.716Z,192.13
2023-04-18T06:08:24.768Z,193.76
2023-04-18T06:09:24.736Z,200.03
2023-04-18T06:10:24.783Z,204.03
2023-04-18T06:11:24.843Z,194.70
2023-04-18T06:12:24.865Z,186.43
2023-04-18T06:13:24.863Z,192.21
2023-04-18T06:14:24.912Z,192.31
2023-04-18T06:15:24.923Z,183.80
2023-04-18T06:16:25.031Z,180.12
2023-04-18T06:17:24.966Z,187.83
2023-04-18T06:18:25.051Z,179.54
2023-04-18T06:19:25.026Z,184.13
2023-04-18T06:20:25.006Z,185.34
2023-04-18T06:21:25.038Z,191.03
2023-04-18T06:22:25.024Z,192.97
2023-04-18T06:23:25.033Z,188.99
2023-04-18T06:24:25.086Z,195.47
2023-04-18T06:25:25.086Z,178.36
2023-04-18T06:26:25.096Z,196.53
2023-04-18T06:27:31.537Z,203.81
2023-04-18T06:28:26.143Z,191.14
2023-04-18T06:29:25.076Z,183.95
2023-04-18T06:30:25.141Z,187.59
2023-04-18T06:31:25.458Z,189.99
2023-04-18T06:32:25.164Z,186.85
2023-04-18T06:33:25.382Z,188.70
2023-04-18T06:34:25.074Z,184.95
2023-04-18T06:35:26.737Z,183.96
2023-04-18T06:36:25.062Z,182.58
2023-04-18T06:37:25.075Z,180.49
2023-04-18T06:38:25.075Z,182.19
2023-04-18T06:39:25.056Z,181.59
2023-04-18T06:40:25.033Z,189.29
2023-04-18T06:41:25.944Z,192.31
2023-04-18T06:42:25.092Z,189.72
2023-04-18T06:43:25.021Z,202.25
2023-04-18T06:44:25.119Z,195.17
2023-04-18T06:45:25.032Z,200.61
2023-04-18T06:46:25.119Z,199.64
2023-04-18T06:47:25.067Z,192.39
2023-04-18T06:48:25.413Z,195.09
2023-04-18T06:49:26.446Z,190.53
2023-04-18T06:50:25.069Z,189.71
2023-04-18T06:51:25.119Z,199.40
2023-04-18T06:52:25.203Z,198.01
2023-04-18T06:53:25.252Z,200.38
2023-04-18T06:54:25.162Z,192.29
2023-04-18T06:55:25.319Z,196.98
2023-04-18T06:56:25.274Z,188.65
2023-04-18T06:57:25.503Z,196.54
2023-04-18T06:58:25.200Z,197.37
2023-04-18T06:59:25.180Z,195.46
2023-04-18T07:00:25.205Z,190.76
2023-04-18T07:01:25.292Z,190.17
2023-04-18T07:02:25.427Z,191.04
2023-04-18T07:03:25.424Z,189.97
2023-04-18T07:04:25.373Z,187.76
2023-04-18T07:05:25.233Z,188.10
2023-04-18T07:06:25.229Z,189.20
2023-04-18T07:07:25.304Z,185.34
2023-04-18T07:08:25.244Z,189.08
2023-04-18T07:09:25.251Z,186.85
2023-04-18T07:10:25.235Z,184.63
2023-04-18T07:11:25.299Z,191.22
2023-04-18T07:12:25.522Z,189.56
2023-04-18T07:13:25.287Z,187.13
2023-04-18T07:14:25.278Z,190.06
2023-04-18T07:15:25.290Z,188.70
2023-04-18T07:16:25.371Z,191.59
2023-04-18T07:17:25.383Z,193.01
2023-04-18T07:18:36.618Z,192.50
2023-04-18T07:19:26.280Z,192.84
2023-04-18T07:20:25.312Z,193.63
2023-04-18T07:21:25.283Z,195.03
2023-04-18T07:22:25.481Z,202.13
2023-04-18T07:23:25.289Z,204.72
2023-04-18T07:24:25.311Z,203.49
2023-04-18T07:25:25.248Z,203.35
2023-04-18T07:26:25.261Z,206.42
2023-04-18T07:27:25.280Z,207.92
2023-04-18T07:28:25.285Z,211.92
2023-04-18T07:29:25.245Z,209.37
2023-04-18T07:30:25.232Z,212.31
2023-04-18T07:31:25.257Z,210.68
2023-04-18T07:32:25.354Z,216.20
2023-04-18T07:33:25.206Z,242.65
2023-04-18T07:34:25.196Z,243.85
2023-04-18T07:35:25.264Z,249.48
2023-04-18T07:36:25.440Z,251.02
2023-04-18T07:37:25.168Z,250.00
2023-04-18T07:38:25.181Z,250.00
2023-04-18T07:39:25.145Z,249.15
2023-04-18T07:40:25.170Z,242.10
2023-04-18T07:41:25.408Z,238.67
2023-04-18T07:42:25.122Z,232.67
2023-04-18T07:43:25.898Z,227.25
2023-04-18T07:44:25.121Z,218.85
2023-04-18T07:45:25.136Z,209.87
2023-04-18T07:46:25.244Z,207.09
2023-04-18T07:47:26.117Z,204.05
2023-04-18T07:48:25.552Z,197.82
2023-04-18T07:49:25.468Z,197.66
2023-04-18T07:50:25.129Z,194.14
2023-04-18T07:51:25.126Z,191.17
2023-04-18T07:52:25.082Z,190.30
2023-04-18T07:53:25.090Z,191.00
2023-04-18T07:54:25.108Z,193.43
2023-04-18T07:55:25.277Z,188.97
2023-04-18T07:56:25.108Z,182.90
2023-04-18T07:57:25.101Z,180.53
2023-04-18T07:58:25.235Z,180.22
2023-04-18T07:59:25.075Z,179.51
2023-04-18T08:00:25.093Z,171.94
2023-04-18T08:01:25.137Z,167.57
2023-04-18T08:02:25.614Z,163.19
2023-04-18T08:03:25.330Z,176.92
2023-04-18T08:04:26.924Z,176.50
2023-04-18T08:05:25.206Z,177.13
2023-04-18T08:06:25.169Z,176.98
2023-04-18T08:07:25.169Z,178.77
2023-04-18T08:08:25.148Z,182.27
2023-04-18T08:09:25.429Z,174.37
2023-04-18T08:10:25.161Z,180.22
2023-04-18T08:11:25.161Z,177.41
2023-04-18T08:12:25.129Z,177.21
2023-04-18T08:13:25.119Z,177.54
2023-04-18T08:14:25.121Z,174.18
2023-04-18T08:15:25.135Z,177.56
2023-04-18T08:16:25.164Z,175.36
2023-04-18T08:17:25.158Z,172.70
2023-04-18T08:18:25.118Z,174.41
2023-04-18T08:19:25.469Z,172.41
2023-04-18T08:20:25.236Z,170.89
2023-04-18T08:21:25.023Z,166.48
2023-04-18T08:22:25.065Z,164.65
2023-04-18T08:23:25.042Z,165.97
2023-04-18T08:24:25.045Z,167.17
2023-04-18T08:25:25.064Z,168.54
2023-04-18T08:26:25.002Z,164.41
2023-04-18T08:27:25.017Z,162.48
2023-04-18T08:28:25.023Z,141.08
2023-04-18T08:29:24.988Z,141.68
2023-04-18T08:30:25.014Z,122.35
2023-04-18T08:31:26.189Z,118.79
2023-04-18T08:32:25.089Z,112.33
2023-04-18T08:33:24.959Z,133.98
2023-04-18T08:34:24.941Z,147.85
2023-04-18T08:35:24.970Z,149.57
2023-04-18T08:36:24.960Z,118.89
2023-04-18T08:37:24.932Z,119.35
2023-04-18T08:38:24.911Z,116.54
2023-04-18T08:39:25.395Z,109.95
2023-04-18T08:40:24.958Z,76.03
2023-04-18T08:41:25.046Z,62.99
2023-04-18T08:42:25.174Z,72.52
2023-04-18T08:43:25.250Z,92.52
2023-04-18T08:44:25.113Z,104.68
2023-04-18T08:45:25.211Z,101.98
2023-04-18T08:46:25.260Z,80.33
2023-04-18T08:47:25.210Z,68.46
2023-04-18T08:48:25.108Z,65.79
2023-04-18T08:49:25.182Z,51.42
2023-04-18T08:50:25.271Z,59.68
2023-04-18T08:51:25.333Z,77.48
2023-04-18T08:52:25.558Z,68.73
2023-04-18T08:53:25.557Z,51.68
2023-04-18T08:54:27.215Z,51.74
2023-04-18T08:55:25.611Z,51.65
2023-04-18T08:56:25.606Z,32.84
2023-04-18T08:57:25.622Z,33.24
2023-04-18T08:58:25.682Z,68.07
2023-04-18T08:59:25.760Z,69.86
2023-04-18T09:00:25.805Z,37.50
2023-04-18T09:01:26.423Z,29.39
2023-04-18T09:02:27.259Z,44.82
2023-04-18T09:03:25.912Z,61.19
2023-04-18T09:04:25.954Z,60.64
2023-04-18T09:05:25.973Z,77.99
2023-04-18T09:06:26.682Z,87.14
2023-04-18T09:07:26.053Z,81.65
2023-04-18T09:08:26.136Z,89.69
2023-04-18T09:09:26.467Z,97.76
2023-04-18T09:10:26.104Z,98.86
2023-04-18T09:11:26.198Z,98.09
2023-04-18T09:12:26.182Z,96.87
2023-04-18T09:13:26.262Z,99.19
2023-04-18T09:14:26.460Z,66.31
2023-04-18T09:15:26.306Z,61.38
2023-04-18T09:16:26.433Z,66.82
2023-04-18T09:17:26.453Z,76.26
2023-04-18T09:18:26.507Z,78.82
2023-04-18T09:19:26.546Z,85.16
2023-04-18T09:20:26.608Z,80.75
2023-04-18T09:21:26.615Z,81.33
2023-04-18T09:22:26.675Z,84.74
2023-04-18T09:23:26.721Z,90.83
2023-04-18T09:24:26.820Z,95.64
2023-04-18T09:25:26.798Z,99.93
2023-04-18T09:26:26.794Z,101.24
2023-04-18T09:27:26.843Z,109.74
2023-04-18T09:28:26.921Z,115.79
2023-04-18T09:29:26.921Z,110.57
2023-04-18T09:30:27.002Z,109.96
2023-04-18T09:31:27.188Z,103.40
2023-04-18T09:32:27.449Z,107.18
2023-04-18T09:33:27.153Z,109.59
2023-04-18T09:34:27.208Z,113.47
2023-04-18T09:35:27.203Z,112.68
2023-04-18T09:36:27.647Z,110.17
2023-04-18T09:37:27.334Z,103.46
2023-04-18T09:38:27.400Z,114.17
2023-04-18T09:39:27.439Z,123.99
2023-04-18T09:40:27.594Z,134.15
2023-04-18T09:41:27.498Z,133.54
2023-04-18T09:42:28.883Z,133.55
2023-04-18T09:43:27.582Z,136.43
2023-04-18T09:44:27.708Z,141.60
2023-04-18T09:45:27.582Z,141.19
2023-04-18T09:46:27.643Z,136.98
2023-04-18T09:47:27.718Z,129.02
2023-04-18T09:48:27.622Z,126.00
2023-04-18T09:49:27.741Z,126.62
2023-04-18T09:50:27.719Z,119.72
2023-04-18T09:51:28.249Z,110.85
2023-04-18T09:52:27.818Z,104.78
2023-04-18T09:53:27.704Z,97.59
2023-04-18T09:54:27.805Z,93.06
2023-04-18T09:55:27.733Z,93.51
2023-04-18T09:56:27.990Z,90.56
2023-04-18T09:57:27.816Z,81.80
2023-04-18T09:58:27.765Z,80.18
2023-04-18T09:59:27.860Z,79.81
2023-04-18T10:00:27.937Z,82.31
2023-04-18T10:01:27.875Z,80.27
2023-04-18T10:02:27.914Z,77.78
2023-04-18T10:03:27.929Z,73.90
2023-04-18T10:04:28.024Z,74.51
2023-04-18T10:05:28.006Z,72.50
2023-04-18T10:06:27.849Z,69.28
2023-04-18T10:07:27.891Z,71.99
2023-04-18T10:08:27.887Z,65.73
2023-04-18T10:09:27.918Z,63.03
2023-04-18T10:10:27.967Z,64.06
2023-04-18T10:11:27.989Z,65.54
2023-04-18T10:12:28.020Z,60.92
2023-04-18T10:13:28.048Z,59.80
2023-04-18T10:14:28.577Z,61.24
2023-04-18T10:15:28.112Z,57.19
2023-04-18T10:16:28.597Z,57.08
2023-04-18T10:17:29.567Z,26.37
2023-04-18T10:18:28.185Z,35.58
2023-04-18T10:19:28.124Z,44.78
2023-04-18T10:20:28.070Z,58.02
2023-04-18T10:21:28.082Z,62.92
2023-04-18T10:22:28.451Z,61.21
2023-04-18T10:23:28.261Z,71.11
2023-04-18T10:24:28.199Z,72.48
2023-04-18T10:25:28.264Z,72.50
2023-04-18T10:26:28.321Z,63.64
2023-04-18T10:27:28.495Z,48.78
2023-04-18T10:28:28.484Z,39.67
2023-04-18T10:29:28.553Z,39.34
2023-04-18T10:30:28.596Z,43.80
2023-04-18T10:31:28.698Z,52.25
2023-04-18T10:32:28.990Z,33.00
2023-04-18T10:33:30.960Z,29.21
2023-04-18T10:34:28.689Z,37.93
2023-04-18T10:35:28.633Z,42.31
2023-04-18T10:36:28.895Z,54.20
2023-04-18T10:37:28.651Z,55.89
2023-04-18T10:38:28.655Z,58.05
2023-04-18T10:39:28.623Z,59.91
2023-04-18T10:40:28.618Z,59.74
2023-04-18T10:41:28.647Z,61.31
2023-04-18T10:42:28.611Z,57.92
2023-04-18T10:43:28.605Z,48.61
2023-04-18T10:44:28.542Z,37.39
2023-04-18T10:45:28.563Z,53.00
2023-04-18T10:46:32.328Z,67.95
2023-04-18T10:47:28.647Z,68.05
2023-04-18T10:48:28.984Z,69.28
2023-04-18T10:49:31.011Z,73.11
2023-04-18T10:50:28.545Z,68.60
2023-04-18T10:51:28.534Z,69.99
2023-04-18T10:52:28.580Z,73.87
2023-04-18T10:53:28.969Z,79.31
2023-04-18T10:54:28.532Z,83.24
2023-04-18T10:55:28.494Z,81.71
2023-04-18T10:56:28.605Z,79.95
2023-04-18T10:57:28.487Z,80.54
2023-04-18T10:58:28.489Z,79.70
2023-04-18T10:59:28.497Z,87.78
2023-04-18T11:00:28.528Z,94.08
2023-04-18T11:01:31.055Z,97.52
2023-04-18T11:02:28.616Z,97.57
2023-04-18T11:03:28.554Z,98.08
2023-04-18T11:04:28.586Z,98.94
2023-04-18T11:05:28.451Z,103.06
2023-04-18T11:06:28.488Z,107.60
2023-04-18T11:07:29.965Z,108.31
2023-04-18T11:08:28.471Z,107.74
2023-04-18T11:09:28.404Z,106.97
2023-04-18T11:10:28.428Z,106.58
2023-04-18T11:11:28.536Z,109.54
2023-04-18T11:12:28.467Z,112.49
2023-04-18T11:13:28.397Z,99.26
2023-04-18T11:14:28.395Z,85.49
2023-04-18T11:16:28.405Z,73.16
2023-04-18T11:17:28.383Z,70.76
2023-04-18T11:18:28.386Z,69.59
2023-04-18T11:19:28.627Z,66.84
2023-04-18T11:20:28.368Z,65.26
2023-04-18T11:21:30.410Z,57.76
2023-04-18T11:22:28.469Z,51.29
2023-04-18T11:23:28.454Z,50.60
2023-04-18T11:24:28.623Z,53.75
2023-04-18T11:25:29.410Z,54.82
2023-04-18T11:26:28.646Z,56.28
2023-04-18T11:27:28.693Z,58.80
2023-04-18T11:28:28.670Z,62.75
2023-04-18T11:29:28.755Z,65.68
2023-04-18T11:30:28.788Z,75.32
2023-04-18T11:31:29.002Z,55.04
2023-04-18T11:32:28.972Z,62.66
2023-04-18T11:33:28.956Z,69.09
2023-04-18T11:34:28.900Z,62.84
2023-04-18T11:35:28.964Z,67.08
2023-04-18T11:36:28.976Z,75.54
2023-04-18T11:37:29.006Z,73.61
2023-04-18T11:38:29.087Z,78.91
2023-04-18T11:39:29.108Z,82.79
2023-04-18T11:40:29.245Z,83.73
2023-04-18T11:41:29.246Z,87.39
2023-04-18T11:42:29.213Z,90.48
2023-04-18T11:43:29.235Z,92.66
2023-04-18T11:44:29.264Z,91.86
2023-04-18T11:45:29.257Z,91.32
2023-04-18T11:46:29.358Z,93.38
2023-04-18T11:47:29.378Z,94.98
2023-04-18T11:48:29.391Z,92.88
2023-04-18T11:49:29.393Z,97.52
2023-04-18T11:50:29.458Z,94.70
2023-04-18T11:51:29.468Z,79.79
2023-04-18T11:52:29.507Z,78.99
2023-04-18T11:53:29.537Z,79.87
2023-04-18T11:54:29.539Z,68.63
2023-04-18T11:55:29.591Z,57.31
2023-04-18T11:56:29.617Z,48.72
2023-04-18T11:57:29.654Z,36.05
2023-04-18T11:58:29.731Z,25.10
2023-04-18T11:59:29.773Z,32.09
2023-04-18T12:00:29.779Z,25.00
2023-04-18T12:01:29.835Z,30.19
2023-04-18T12:02:29.946Z,26.47
2023-04-18T12:03:30.109Z,31.62
2023-04-18T12:04:30.193Z,37.85
2023-04-18T12:05:30.226Z,42.46
2023-04-18T12:06:30.200Z,48.51
2023-04-18T12:07:30.080Z,54.62
2023-04-18T12:08:30.136Z,24.65
2023-04-18T12:09:30.126Z,7.52
2023-04-18T12:10:30.317Z,10.69
2023-04-18T12:11:30.217Z,27.46
2023-04-18T12:12:30.218Z,37.16
2023-04-18T12:13:30.268Z,44.77
2023-04-18T12:14:30.288Z,46.37
2023-04-18T12:15:30.361Z,24.20
2023-04-18T12:16:30.404Z,25.00
2023-04-18T12:17:30.339Z,34.12
2023-04-18T12:18:30.396Z,14.33
2023-04-18T12:19:30.438Z,13.47
2023-04-18T12:20:30.445Z,33.89
2023-04-18T12:21:30.449Z,34.20
2023-04-18T12:22:31.018Z,26.90
2023-04-18T12:23:30.575Z,25.82
2023-04-18T12:24:30.452Z,60.46
2023-04-18T12:25:30.457Z,79.55
2023-04-18T12:26:30.527Z,88.80
2023-04-18T12:27:30.529Z,78.05
2023-04-18T12:28:30.539Z,79.00
2023-04-18T12:29:30.540Z,77.65
2023-04-18T12:30:30.606Z,56.52
2023-04-18T12:31:30.646Z,40.97
2023-04-18T12:32:30.635Z,46.83
2023-04-18T12:33:30.621Z,60.90
2023-04-18T12:34:30.803Z,49.50
2023-04-18T12:35:30.832Z,53.58